Time;durP1;ratioP1;P1;durP2;ratioP2;P2;SDS_P1;SDS_P2;PMS_P1;PMS_P2;Temp;Humidity;BMP_temperature;BMP_pressure;BME280_temperature;BME280_humidity;BME280_pressure;Samples;Min_cycle;Max_cycle;Signal;HPM_P1;HPM_P2
2022/12/30 00:01:08;;;;;;;1.60;0.70;;;10.60;99.90;;;;;;7388888;19;20138;-75
2022/12/30 00:03:34;;;;;;;2.13;0.80;;;10.60;99.90;;;;;;7388406;19;20650;-75
2022/12/30 00:06:01;;;;;;;1.47;0.70;;;10.50;99.90;;;;;;7388016;19;20135;-76
2022/12/30 00:11:11;;;;;;;0.63;0.60;;;10.60;99.90;;;;;;7387743;19;20139;-76
2022/12/30 00:33:27;;;;;;;0.90;0.50;;;10.40;99.90;;;;;;7388345;19;20131;-75
2022/12/30 00:35:53;;;;;;;0.50;0.40;;;10.50;99.90;;;;;;7389044;19;20459;-75
2022/12/30 00:38:18;;;;;;;0.40;0.40;;;10.50;99.90;;;;;;7386470;19;20136;-75
2022/12/30 00:43:07;;;;;;;1.50;0.40;;;10.40;99.90;;;;;;7393588;19;20130;-75
2022/12/30 00:43:30;;;;;;;0.30;0.30;;;10.50;99.90;;;;;;7394642;19;20595;-75
2022/12/30 00:45:56;;;;;;;0.60;0.50;;;10.60;99.90;;;;;;7392878;19;20152;-76
2022/12/30 00:56:36;;;;;;;0.50;0.40;;;10.30;99.90;;;;;;7394211;19;20141;-76
2022/12/30 00:59:04;;;;;;;0.63;0.37;;;10.20;99.90;;;;;;7394794;19;20127;-75
2022/12/30 01:01:30;;;;;;;0.73;0.50;;;10.20;99.90;;;;;;7396387;19;20130;-75
2022/12/30 01:03:56;;;;;;;0.43;0.43;;;10.10;99.90;;;;;;7391737;19;20539;-76
2022/12/30 01:06:21;;;;;;;0.50;0.40;;;10.20;99.90;;;;;;7395846;19;20698;-76
2022/12/30 01:08:47;;;;;;;0.93;0.37;;;10.20;99.90;;;;;;7393362;19;20163;-76
2022/12/30 01:11:13;;;;;;;0.40;0.40;;;10.30;99.90;;;;;;7392413;19;20157;-76
2022/12/30 01:13:39;;;;;;;0.90;0.50;;;10.40;99.90;;;;;;7395105;19;20139;-76
2022/12/30 01:16:11;;;;;;;0.50;0.40;;;10.50;99.90;;;;;;7393749;19;20146;-74
2022/12/30 01:18:37;;;;;;;0.60;0.50;;;10.50;99.90;;;;;;7393762;19;20135;-76
2022/12/30 01:21:04;;;;;;;1.07;0.53;;;10.50;99.90;;;;;;7394384;19;20138;-76
2022/12/30 01:23:30;;;;;;;2.17;0.67;;;10.50;99.90;;;;;;7394691;19;20732;-75
2022/12/30 01:26:03;;;;;;;0.40;0.37;;;10.50;99.90;;;;;;7393377;19;20158;-76
2022/12/30 01:28:35;;;;;;;0.57;0.40;;;10.40;99.90;;;;;;7393796;19;20174;-76
2022/12/30 01:31:07;;;;;;;0.73;0.60;;;10.30;99.90;;;;;;7393633;19;20134;-75
2022/12/30 01:33:34;;;;;;;0.40;0.40;;;10.30;99.90;;;;;;7391505;19;20129;-75
2022/12/30 01:36:00;;;;;;;0.37;0.37;;;10.40;99.90;;;;;;7393322;19;20543;-76
2022/12/30 01:38:28;;;;;;;2.33;0.40;;;10.40;99.90;;;;;;7393246;19;20163;-76
2022/12/30 01:40:53;;;;;;;0.43;0.40;;;10.40;99.90;;;;;;7395463;19;20123;-76
2022/12/30 01:43:19;;;;;;;0.97;0.70;;;10.40;99.90;;;;;;7393877;19;20232;-75
2022/12/30 01:45:50;;;;;;;0.73;0.33;;;10.40;99.90;;;;;;7386753;19;20134;-76
2022/12/30 01:48:29;;;;;;;0.43;0.40;;;10.40;99.90;;;;;;7391570;19;20145;-76
2022/12/30 01:51:01;;;;;;;0.60;0.60;;;10.30;99.90;;;;;;7389964;19;20146;-75
2022/12/30 01:53:35;;;;;;;0.50;0.50;;;10.20;99.90;;;;;;7390953;19;20149;-75
2022/12/30 01:56:16;;;;;;;0.60;0.40;;;10.20;99.90;;;;;;7391023;19;20479;-76
2022/12/30 01:58:56;;;;;;;0.70;0.60;;;10.30;99.90;;;;;;7392414;19;20606;-76
2022/12/30 02:01:22;;;;;;;1.60;0.70;;;10.20;99.90;;;;;;7393789;19;20202;-75
2022/12/30 02:03:56;;;;;;;0.43;0.43;;;9.90;99.90;;;;;;7392311;19;20154;-75
2022/12/30 02:06:45;;;;;;;1.00;0.60;;;10.10;99.90;;;;;;7392307;19;20160;-76
2022/12/30 02:09:11;;;;;;;1.67;0.40;;;10.10;99.90;;;;;;7391736;19;20623;-76
2022/12/30 02:11:37;;;;;;;0.50;0.50;;;10.00;99.90;;;;;;7389115;19;20153;-75
2022/12/30 02:14:03;;;;;;;0.40;0.40;;;10.00;99.90;;;;;;7389227;19;20193;-75
2022/12/30 02:16:50;;;;;;;2.20;0.50;;;10.10;99.90;;;;;;7391463;19;20153;-76
2022/12/30 02:19:41;;;;;;;0.60;0.30;;;9.90;99.90;;;;;;7393516;19;20177;-76
2022/12/30 02:22:39;;;;;;;0.87;0.50;;;10.00;99.90;;;;;;7392135;19;20483;-75
2022/12/30 02:25:38;;;;;;;0.30;0.30;;;10.10;99.90;;;;;;7391592;19;20179;-75
2022/12/30 02:28:16;;;;;;;0.50;0.50;;;10.10;99.90;;;;;;7392194;19;20575;-76
2022/12/30 02:30:56;;;;;;;0.40;0.40;;;10.00;99.90;;;;;;7390644;19;20119;-75
2022/12/30 02:33:44;;;;;;;0.53;0.53;;;10.10;99.90;;;;;;7391709;19;20484;-76
2022/12/30 02:36:36;;;;;;;0.40;0.40;;;9.90;99.90;;;;;;7391980;19;20156;-75
2022/12/30 02:39:22;;;;;;;1.27;0.57;;;10.00;99.90;;;;;;7393177;19;20145;-76
2022/12/30 02:45:04;;;;;;;0.87;0.40;;;10.10;99.90;;;;;;7391913;19;20138;-76
2022/12/30 02:47:46;;;;;;;0.77;0.43;;;10.10;99.90;;;;;;7385211;19;20143;-76
2022/12/30 02:53:02;;;;;;;0.40;0.40;;;10.10;99.90;;;;;;7392857;19;20151;-75
2022/12/30 02:55:28;;;;;;;0.57;0.30;;;10.10;99.90;;;;;;7390241;19;20138;-76
2022/12/30 02:57:53;;;;;;;1.00;0.47;;;10.10;99.90;;;;;;7388320;19;20139;-75
2022/12/30 03:06:22;;;;;;;0.50;0.50;;;10.00;99.90;;;;;;7391240;19;20138;-76
2022/12/30 03:08:55;;;;;;;1.13;0.50;;;10.00;99.90;;;;;;7389400;19;20141;-75
2022/12/30 03:11:22;;;;;;;3.83;0.50;;;9.90;99.90;;;;;;7390606;19;20194;-76
2022/12/30 03:14:29;;;;;;;1.90;0.60;;;9.90;99.90;;;;;;7391753;19;20135;-75
2022/12/30 03:17:12;;;;;;;0.53;0.50;;;9.90;99.90;;;;;;7386975;19;20138;-76
2022/12/30 03:19:42;;;;;;;1.43;0.43;;;9.80;99.90;;;;;;7388367;19;20134;-76
2022/12/30 03:27:03;;;;;;;0.40;0.40;;;9.50;99.90;;;;;;7386110;19;20150;-75
2022/12/30 03:27:45;;;;;;;0.67;0.57;;;9.50;99.90;;;;;;7387928;19;20161;-75
2022/12/30 03:30:12;;;;;;;0.77;0.50;;;9.60;99.90;;;;;;7388381;19;20169;-76
2022/12/30 03:32:38;;;;;;;0.50;0.50;;;9.70;99.90;;;;;;7386256;19;20141;-75
2022/12/30 03:35:05;;;;;;;0.50;0.40;;;9.80;99.90;;;;;;7390266;19;20209;-75
2022/12/30 03:37:53;;;;;;;1.00;0.50;;;9.70;99.90;;;;;;7388734;19;20130;-76
2022/12/30 03:40:38;;;;;;;0.60;0.50;;;9.70;99.90;;;;;;7390746;19;20582;-76
2022/12/30 03:43:05;;;;;;;1.20;0.87;;;9.70;99.90;;;;;;7389114;19;20153;-75
2022/12/30 03:45:31;;;;;;;0.50;0.50;;;9.70;99.90;;;;;;7389375;19;20138;-76
2022/12/30 03:47:57;;;;;;;0.60;0.43;;;9.80;99.90;;;;;;7390501;19;20149;-75
2022/12/30 03:50:23;;;;;;;1.37;0.60;;;9.80;99.90;;;;;;7390336;19;20134;-75
2022/12/30 03:52:49;;;;;;;0.77;0.67;;;9.80;99.90;;;;;;7388920;19;20149;-75
2022/12/30 03:55:14;;;;;;;1.23;0.77;;;9.80;99.90;;;;;;7389504;19;20127;-75
2022/12/30 03:57:40;;;;;;;2.33;0.60;;;9.70;99.90;;;;;;7390526;19;20131;-75
2022/12/30 04:00:10;;;;;;;1.03;0.83;;;9.60;99.90;;;;;;7390366;19;20605;-75
2022/12/30 04:02:38;;;;;;;0.50;0.50;;;9.50;99.90;;;;;;7388236;19;20146;-75
2022/12/30 04:05:07;;;;;;;0.90;0.60;;;9.40;99.90;;;;;;7387005;19;20160;-76
2022/12/30 04:07:34;;;;;;;0.53;0.50;;;9.50;99.90;;;;;;7389472;19;20646;-75
2022/12/30 04:10:00;;;;;;;0.93;0.53;;;9.40;99.90;;;;;;7389303;19;20126;-75
2022/12/30 04:12:25;;;;;;;1.20;0.60;;;8.80;99.90;;;;;;7387878;19;20138;-75
2022/12/30 04:14:51;;;;;;;0.40;0.40;;;8.90;99.90;;;;;;7392206;19;20138;-75
2022/12/30 04:17:17;;;;;;;0.50;0.50;;;8.80;99.90;;;;;;7396419;19;20210;-77
2022/12/30 04:19:43;;;;;;;1.17;0.50;;;9.10;99.90;;;;;;7395178;19;20217;-76
2022/12/30 04:22:08;;;;;;;1.40;0.53;;;8.80;99.90;;;;;;7396377;19;20594;-75
2022/12/30 04:24:34;;;;;;;1.60;0.50;;;8.50;99.90;;;;;;7394575;19;20618;-75
2022/12/30 04:27:00;;;;;;;2.37;0.43;;;8.50;99.90;;;;;;7396200;19;20609;-75
2022/12/30 04:29:26;;;;;;;2.70;0.50;;;8.60;99.90;;;;;;7394619;19;20497;-76
2022/12/30 04:31:51;;;;;;;0.93;0.50;;;8.60;99.90;;;;;;7389889;19;20158;-76
2022/12/30 04:34:17;;;;;;;0.60;0.50;;;8.90;99.90;;;;;;7394072;19;20286;-75
2022/12/30 04:36:43;;;;;;;1.23;0.60;;;9.00;99.90;;;;;;7395776;19;20161;-76
2022/12/30 04:39:09;;;;;;;0.93;0.53;;;9.00;99.90;;;;;;7394282;19;20138;-75
2022/12/30 04:41:35;;;;;;;1.70;0.50;;;9.10;99.90;;;;;;7393029;19;20138;-76
2022/12/30 04:44:02;;;;;;;0.83;0.50;;;9.10;99.90;;;;;;7392576;19;20145;-76
2022/12/30 04:46:28;;;;;;;1.20;0.67;;;9.00;99.90;;;;;;7392607;19;20638;-76
2022/12/30 04:48:54;;;;;;;1.00;0.50;;;9.00;99.90;;;;;;7394481;19;20160;-76
2022/12/30 04:51:20;;;;;;;0.90;0.57;;;9.10;99.90;;;;;;7391985;19;20217;-76
2022/12/30 04:53:47;;;;;;;1.80;0.67;;;8.70;99.90;;;;;;7393774;19;20138;-75
2022/12/30 04:56:12;;;;;;;0.67;0.50;;;8.60;99.90;;;;;;7393041;19;20141;-75
2022/12/30 04:58:38;;;;;;;1.70;1.00;;;8.80;99.90;;;;;;7395225;19;20713;-75
2022/12/30 05:01:04;;;;;;;0.60;0.60;;;8.90;99.90;;;;;;7396016;19;20669;-74
2022/12/30 05:03:30;;;;;;;1.07;0.60;;;8.90;99.90;;;;;;7394361;19;20154;-75
2022/12/30 05:05:56;;;;;;;0.50;0.50;;;8.60;99.90;;;;;;7394651;19;20159;-74
2022/12/30 05:08:22;;;;;;;0.93;0.50;;;8.50;99.90;;;;;;7389415;19;20560;-75
2022/12/30 05:10:48;;;;;;;0.70;0.50;;;8.40;99.90;;;;;;7392565;19;20501;-77
2022/12/30 05:13:14;;;;;;;0.93;0.60;;;8.50;99.90;;;;;;7391793;19;20595;-75
2022/12/30 05:15:40;;;;;;;1.47;0.47;;;8.40;99.90;;;;;;7394439;19;20151;-76
2022/12/30 05:18:06;;;;;;;1.30;0.50;;;8.50;99.90;;;;;;7392947;19;20595;-76
2022/12/30 05:20:32;;;;;;;0.53;0.53;;;8.50;99.90;;;;;;7393918;19;20593;-76
2022/12/30 05:22:58;;;;;;;0.30;0.30;;;8.50;99.90;;;;;;7393408;19;20131;-75
2022/12/30 05:28:08;;;;;;;0.40;0.40;;;8.20;99.90;;;;;;7395039;19;20138;-76
2022/12/30 05:30:34;;;;;;;0.63;0.50;;;8.10;99.90;;;;;;7395961;19;20143;-75
2022/12/30 05:32:59;;;;;;;0.40;0.40;;;8.30;99.90;;;;;;7393655;19;20155;-75
2022/12/30 05:35:25;;;;;;;0.67;0.50;;;8.40;99.90;;;;;;7391202;19;20594;-75
2022/12/30 05:37:51;;;;;;;0.93;0.80;;;8.40;99.90;;;;;;7395578;19;20603;-75
2022/12/30 05:40:17;;;;;;;0.80;0.60;;;8.70;99.90;;;;;;7392196;19;20142;-75
2022/12/30 05:42:43;;;;;;;0.90;0.60;;;8.20;99.90;;;;;;7390788;19;20143;-75
2022/12/30 05:45:09;;;;;;;0.50;0.50;;;8.30;99.90;;;;;;7393667;19;20161;-76
2022/12/30 05:47:35;;;;;;;0.50;0.47;;;8.40;99.90;;;;;;7392668;19;20860;-75
2022/12/30 05:50:00;;;;;;;0.53;0.40;;;8.40;99.90;;;;;;7392898;19;20146;-76
2022/12/30 05:52:27;;;;;;;0.70;0.50;;;8.60;99.90;;;;;;7393606;19;20131;-75
2022/12/30 05:54:53;;;;;;;2.43;0.60;;;8.60;99.90;;;;;;7390454;19;20147;-75
2022/12/30 05:57:19;;;;;;;0.97;0.70;;;8.40;99.90;;;;;;7392620;19;20146;-75
2022/12/30 05:59:45;;;;;;;1.60;0.60;;;8.60;99.90;;;;;;7393917;19;20127;-76
2022/12/30 06:02:10;;;;;;;1.30;0.70;;;8.60;99.90;;;;;;7390081;19;20535;-75
2022/12/30 06:04:36;;;;;;;0.67;0.60;;;8.10;99.90;;;;;;7389391;19;20151;-75
2022/12/30 06:07:02;;;;;;;0.60;0.60;;;8.00;99.90;;;;;;7393528;19;20149;-75
2022/12/30 06:09:27;;;;;;;1.47;0.70;;;8.20;99.90;;;;;;7392999;19;20131;-75
2022/12/30 06:11:53;;;;;;;1.00;0.70;;;8.10;99.90;;;;;;7391084;19;20154;-75
2022/12/30 06:14:20;;;;;;;1.40;0.70;;;7.90;99.90;;;;;;7386051;19;20149;-75
2022/12/30 06:16:46;;;;;;;0.73;0.70;;;8.10;99.90;;;;;;7387614;19;20134;-75
2022/12/30 06:19:12;;;;;;;1.43;1.00;;;8.20;99.90;;;;;;7391286;19;20219;-76
2022/12/30 06:21:38;;;;;;;0.50;0.50;;;8.20;99.90;;;;;;7392237;19;20469;-75
2022/12/30 06:24:04;;;;;;;0.63;0.47;;;7.90;99.90;;;;;;7391840;19;20138;-75
2022/12/30 06:26:30;;;;;;;1.13;0.60;;;7.90;99.90;;;;;;7390182;19;20143;-74
2022/12/30 06:28:55;;;;;;;0.60;0.60;;;8.00;99.90;;;;;;7390383;19;20126;-74
2022/12/30 06:31:21;;;;;;;0.50;0.50;;;8.10;99.90;;;;;;7386404;19;20153;-74
2022/12/30 06:33:47;;;;;;;1.83;0.40;;;7.90;99.90;;;;;;7391267;19;20149;-75
2022/12/30 06:36:12;;;;;;;0.90;0.60;;;7.90;99.90;;;;;;7387576;19;20126;-75
2022/12/30 06:38:38;;;;;;;0.73;0.50;;;8.00;99.90;;;;;;7385850;19;20606;-75
2022/12/30 06:41:06;;;;;;;0.60;0.50;;;8.00;99.90;;;;;;7390235;19;20146;-77
2022/12/30 06:43:32;;;;;;;1.07;0.50;;;8.10;99.90;;;;;;7389890;19;20150;-76
2022/12/30 06:45:57;;;;;;;0.50;0.50;;;8.10;99.90;;;;;;7390785;19;20127;-76
2022/12/30 06:48:24;;;;;;;1.00;0.60;;;8.00;99.90;;;;;;7390005;19;20135;-79
2022/12/30 06:50:58;;;;;;;2.67;1.33;;;8.10;99.90;;;;;;7390818;19;20161;-79
2022/12/30 06:53:24;;;;;;;1.37;0.90;;;8.30;99.90;;;;;;7390770;19;20143;-79
2022/12/30 06:55:50;;;;;;;1.37;0.90;;;8.40;99.90;;;;;;7387332;19;20175;-79
2022/12/30 06:58:15;;;;;;;0.80;0.80;;;8.50;99.90;;;;;;7388856;19;20170;-79
2022/12/30 07:00:41;;;;;;;1.63;0.80;;;8.10;99.90;;;;;;7390775;19;20165;-78
2022/12/30 07:03:12;;;;;;;1.23;0.70;;;8.00;99.90;;;;;;7390340;19;20158;-79
2022/12/30 07:05:38;;;;;;;0.87;0.63;;;8.00;99.90;;;;;;7390435;19;20611;-79
2022/12/30 07:08:03;;;;;;;1.23;0.70;;;8.10;99.90;;;;;;7391325;19;20166;-79
2022/12/30 07:10:29;;;;;;;1.83;0.70;;;8.10;99.90;;;;;;7389281;19;20138;-78
2022/12/30 07:12:55;;;;;;;0.83;0.63;;;8.20;99.90;;;;;;7390718;19;20226;-79
2022/12/30 07:15:21;;;;;;;1.63;0.80;;;7.70;99.90;;;;;;7391268;19;20142;-80
2022/12/30 07:17:47;;;;;;;1.03;0.63;;;7.20;99.90;;;;;;7389870;19;20165;-78
2022/12/30 07:20:13;;;;;;;0.80;0.60;;;7.60;99.90;;;;;;7391299;19;20134;-79
2022/12/30 07:22:41;;;;;;;8.37;3.50;;;7.30;99.90;;;;;;7390797;19;20590;-79
2022/12/30 07:25:07;;;;;;;1.30;1.00;;;7.50;99.90;;;;;;7388967;19;20235;-79
2022/12/30 07:27:34;;;;;;;2.33;1.00;;;7.80;99.90;;;;;;7389967;19;20478;-78
2022/12/30 07:30:01;;;;;;;1.10;0.70;;;8.00;99.90;;;;;;7390402;19;20138;-79
2022/12/30 07:32:26;;;;;;;1.93;0.70;;;8.00;99.90;;;;;;7391114;19;20139;-79
2022/12/30 07:34:52;;;;;;;2.13;0.90;;;8.10;99.90;;;;;;7389443;19;20170;-80
2022/12/30 07:37:18;;;;;;;3.27;1.00;;;8.20;99.90;;;;;;7391945;19;20146;-78
2022/12/30 07:39:44;;;;;;;3.87;1.10;;;8.20;99.90;;;;;;7390512;19;20155;-78
2022/12/30 07:42:09;;;;;;;1.73;1.10;;;8.20;99.90;;;;;;7390616;19;20134;-80
2022/12/30 07:44:37;;;;;;;1.93;0.90;;;8.10;99.90;;;;;;7391062;19;20137;-79
2022/12/30 07:47:04;;;;;;;1.63;0.83;;;8.00;99.90;;;;;;7391995;19;20166;-79
2022/12/30 07:49:30;;;;;;;2.70;1.00;;;8.10;99.90;;;;;;7392801;19;20142;-80
2022/12/30 07:51:55;;;;;;;1.87;1.20;;;8.10;99.90;;;;;;7387901;19;20153;-78
2022/12/30 07:54:21;;;;;;;3.67;1.20;;;8.20;99.90;;;;;;7391291;19;20149;-77
2022/12/30 07:56:47;;;;;;;3.00;1.73;;;8.00;99.90;;;;;;7395895;19;20175;-78
2022/12/30 07:59:13;;;;;;;4.63;1.50;;;8.20;99.90;;;;;;7389992;19;20218;-80
2022/12/30 08:01:39;;;;;;;1.37;0.90;;;8.20;99.90;;;;;;7383357;19;20569;-79
2022/12/30 08:04:05;;;;;;;1.80;1.00;;;7.90;99.90;;;;;;7385198;19;20630;-78
2022/12/30 08:06:33;;;;;;;2.30;1.10;;;8.10;99.90;;;;;;7386439;19;20211;-78
2022/12/30 08:09:05;;;;;;;1.30;1.07;;;8.10;99.90;;;;;;7385605;19;20131;-77
2022/12/30 08:11:32;;;;;;;1.47;1.10;;;8.20;99.90;;;;;;7383386;19;20629;-78
2022/12/30 08:13:58;;;;;;;2.13;1.27;;;8.20;99.90;;;;;;7387289;19;20150;-77
2022/12/30 08:16:24;;;;;;;4.80;1.87;;;8.30;99.90;;;;;;7385524;19;20127;-78
2022/12/30 08:18:51;;;;;;;3.20;1.70;;;8.10;99.90;;;;;;7384791;19;20175;-76
2022/12/30 08:21:19;;;;;;;16.87;9.17;;;8.20;99.90;;;;;;7385577;19;20135;-78
2022/12/30 08:23:48;;;;;;;11.00;5.87;;;8.20;99.90;;;;;;7385437;19;20506;-79
2022/12/30 08:26:21;;;;;;;2.77;1.90;;;8.20;99.90;;;;;;7388294;19;20127;-76
2022/12/30 08:28:47;;;;;;;4.33;2.43;;;7.80;99.90;;;;;;7385469;19;20151;-76
2022/12/30 08:31:20;;;;;;;5.03;2.07;;;7.90;99.90;;;;;;7382316;19;20142;-76
2022/12/30 08:33:48;;;;;;;3.80;1.97;;;8.00;99.90;;;;;;7386870;19;21279;-77
2022/12/30 08:36:17;;;;;;;2.13;1.30;;;8.20;99.90;;;;;;7385039;19;20228;-76
2022/12/30 08:38:46;;;;;;;2.43;1.40;;;8.10;99.90;;;;;;7387751;19;20127;-78
2022/12/30 08:41:27;;;;;;;2.90;1.40;;;8.20;99.90;;;;;;7381857;19;20127;-77
2022/12/30 08:43:56;;;;;;;5.97;1.57;;;8.30;99.90;;;;;;7383350;19;20153;-76
2022/12/30 08:46:22;;;;;;;1.97;1.40;;;8.20;99.90;;;;;;7386239;19;20135;-77
2022/12/30 08:48:47;;;;;;;1.83;1.20;;;8.30;99.90;;;;;;7385826;19;20138;-76
2022/12/30 08:51:14;;;;;;;1.07;0.83;;;8.10;99.90;;;;;;7381672;19;20157;-77
2022/12/30 08:53:39;;;;;;;0.80;0.80;;;8.20;99.90;;;;;;7386460;19;20641;-76
2022/12/30 08:56:12;;;;;;;1.50;1.27;;;8.30;99.90;;;;;;7389303;19;20143;-77
2022/12/30 08:58:38;;;;;;;0.80;0.80;;;8.30;99.90;;;;;;7386173;19;20155;-77
2022/12/30 09:01:13;;;;;;;3.13;1.20;;;8.20;99.90;;;;;;7387579;19;20134;-76
2022/12/30 09:03:41;;;;;;;1.20;1.03;;;8.30;99.90;;;;;;7391850;19;20173;-76
2022/12/30 09:06:08;;;;;;;1.47;1.30;;;8.20;99.90;;;;;;7392116;19;20233;-77
2022/12/30 09:08:34;;;;;;;2.03;1.50;;;8.50;99.90;;;;;;7393121;19;20142;-77
2022/12/30 09:11:10;;;;;;;3.03;1.43;;;8.60;99.90;;;;;;7391172;19;20161;-75
2022/12/30 09:13:38;;;;;;;3.30;1.70;;;8.50;99.90;;;;;;7401524;19;20142;-75
2022/12/30 09:16:06;;;;;;;2.03;1.70;;;8.50;99.90;;;;;;7395481;19;20131;-76
2022/12/30 09:18:32;;;;;;;2.47;1.40;;;8.50;99.90;;;;;;7398251;19;20826;-76
2022/12/30 09:20:59;;;;;;;3.33;1.63;;;8.20;99.90;;;;;;7396309;19;20130;-76
2022/12/30 09:23:25;;;;;;;3.20;1.90;;;8.20;99.90;;;;;;7396004;19;20157;-76
2022/12/30 09:25:51;;;;;;;2.77;1.50;;;8.20;99.90;;;;;;7392893;19;20142;-75
2022/12/30 09:28:17;;;;;;;2.73;1.90;;;8.30;99.90;;;;;;7393225;19;20134;-78
2022/12/30 09:30:43;;;;;;;1.80;1.20;;;8.20;99.90;;;;;;7391603;19;20139;-77
2022/12/30 09:33:10;;;;;;;4.70;1.40;;;8.20;99.90;;;;;;7393201;19;20118;-76
2022/12/30 09:35:36;;;;;;;2.50;1.87;;;8.30;99.90;;;;;;7401349;19;20489;-78
2022/12/30 09:38:01;;;;;;;2.33;1.43;;;8.20;99.90;;;;;;7392552;19;20133;-78
2022/12/30 09:40:49;;;;;;;5.33;4.10;;;8.00;99.90;;;;;;7392848;19;20137;-78
2022/12/30 09:43:27;;;;;;;3.50;2.40;;;8.30;99.90;;;;;;7376397;19;20162;-78
2022/12/30 09:46:05;;;;;;;3.90;2.33;;;8.10;99.90;;;;;;7388574;19;20150;-77
2022/12/30 09:48:58;;;;;;;7.40;5.00;;;8.00;99.90;;;;;;7396172;19;20156;-79
2022/12/30 09:51:34;;;;;;;5.43;2.53;;;8.00;99.90;;;;;;7389411;19;20595;-79
2022/12/30 09:54:04;;;;;;;13.07;7.13;;;8.30;99.90;;;;;;7392198;19;20610;-78
2022/12/30 09:56:42;;;;;;;6.93;3.83;;;8.20;99.90;;;;;;7393708;19;20137;-77
2022/12/30 09:59:20;;;;;;;4.27;2.37;;;8.40;99.90;;;;;;7387064;19;20169;-78
2022/12/30 10:02:09;;;;;;;3.00;2.03;;;8.30;99.90;;;;;;7392559;19;20134;-78
2022/12/30 10:04:35;;;;;;;2.83;1.83;;;8.40;99.90;;;;;;7386900;19;20182;-78
2022/12/30 10:07:29;;;;;;;4.17;2.50;;;8.80;99.90;;;;;;7389924;19;20139;-79
2022/12/30 10:10:16;;;;;;;3.50;2.20;;;8.70;99.90;;;;;;7388977;19;20635;-78
2022/12/30 10:13:04;;;;;;;4.27;2.00;;;8.80;99.90;;;;;;7387983;19;20198;-79
2022/12/30 10:16:04;;;;;;;3.67;1.60;;;8.60;99.90;;;;;;7391810;19;20405;-78
2022/12/30 10:18:36;;;;;;;5.07;3.33;;;8.80;99.90;;;;;;7392029;19;20158;-77
2022/12/30 10:21:28;;;;;;;2.63;1.97;;;8.50;99.90;;;;;;7392466;19;20625;-77
2022/12/30 10:24:22;;;;;;;3.83;2.60;;;8.60;99.90;;;;;;7390682;19;20587;-77
2022/12/30 10:26:50;;;;;;;4.17;2.50;;;8.80;99.90;;;;;;7391810;19;20123;-78
2022/12/30 10:29:24;;;;;;;2.80;1.90;;;8.90;99.90;;;;;;7390795;19;20134;-79
2022/12/30 10:31:52;;;;;;;2.60;1.13;;;9.10;99.90;;;;;;7387510;19;20146;-78
2022/12/30 10:34:23;;;;;;;2.70;1.20;;;9.10;99.90;;;;;;7391579;19;20643;-78
2022/12/30 10:37:04;;;;;;;3.67;1.10;;;9.40;99.90;;;;;;7401403;19;20122;-78
2022/12/30 10:39:40;;;;;;;3.23;1.60;;;9.30;99.90;;;;;;7389834;19;20150;-79
2022/12/30 10:42:37;;;;;;;3.47;2.27;;;9.50;99.90;;;;;;7390240;19;20142;-78
2022/12/30 10:45:18;;;;;;;1.60;1.13;;;9.60;99.90;;;;;;7390548;19;20218;-78
2022/12/30 10:48:20;;;;;;;2.20;1.17;;;9.70;99.90;;;;;;7396175;19;20455;-78
2022/12/30 10:50:47;;;;;;;1.10;0.90;;;9.70;99.90;;;;;;7389754;19;20162;-78
2022/12/30 10:53:18;;;;;;;2.33;1.10;;;9.90;99.90;;;;;;7394297;19;20135;-79
2022/12/30 10:55:50;;;;;;;1.67;1.20;;;9.80;99.90;;;;;;7405390;19;20235;-80
2022/12/30 10:58:37;;;;;;;2.10;1.00;;;9.90;99.90;;;;;;7391173;19;20146;-78
2022/12/30 11:01:03;;;;;;;2.53;1.33;;;10.00;99.90;;;;;;7392326;19;20241;-77
2022/12/30 11:03:32;;;;;;;1.67;1.23;;;10.10;99.90;;;;;;7388279;19;20154;-78
2022/12/30 11:06:13;;;;;;;1.33;1.23;;;10.30;99.90;;;;;;7390212;19;20135;-78
2022/12/30 11:08:42;;;;;;;2.40;1.40;;;10.40;99.90;;;;;;7391843;19;20153;-80
2022/12/30 11:11:11;;;;;;;1.53;1.17;;;10.30;99.90;;;;;;7389799;19;20163;-78
2022/12/30 11:16:40;;;;;;;1.87;1.00;;;10.40;99.90;;;;;;7388034;19;20160;-78
2022/12/30 11:19:21;;;;;;;3.57;1.07;;;10.50;99.90;;;;;;7386222;19;20155;-78
2022/12/30 11:21:46;;;;;;;1.00;0.80;;;10.50;99.90;;;;;;7390245;19;20146;-78
2022/12/30 11:24:15;;;;;;;1.60;1.30;;;10.40;99.90;;;;;;7388939;19;20171;-78
2022/12/30 11:26:46;;;;;;;1.10;0.90;;;10.30;99.90;;;;;;7388825;19;20167;-77
2022/12/30 11:29:16;;;;;;;8.50;4.77;;;10.40;99.90;;;;;;7399794;19;20155;-78
2022/12/30 11:31:47;;;;;;;3.83;2.17;;;10.40;99.90;;;;;;7386747;19;20172;-78
2022/12/30 11:34:23;;;;;;;1.77;1.20;;;10.30;99.90;;;;;;7389827;19;20168;-79
2022/12/30 11:36:49;;;;;;;0.93;0.83;;;10.40;99.90;;;;;;7390635;19;20146;-78
2022/12/30 11:39:14;;;;;;;0.80;0.80;;;10.70;99.90;;;;;;7389069;19;20142;-78
2022/12/30 11:41:56;;;;;;;2.23;1.03;;;10.60;99.90;;;;;;7389213;19;20579;-78
2022/12/30 11:44:31;;;;;;;1.23;1.00;;;10.60;99.90;;;;;;7388324;19;20147;-78
2022/12/30 11:47:01;;;;;;;0.90;0.70;;;10.60;99.90;;;;;;7388880;19;20665;-78
2022/12/30 11:49:33;;;;;;;1.00;0.60;;;10.70;99.90;;;;;;7390341;19;20179;-77
2022/12/30 11:52:11;;;;;;;1.20;0.90;;;10.60;99.90;;;;;;7395681;19;20155;-78
2022/12/30 11:54:56;;;;;;;0.50;0.50;;;10.70;99.90;;;;;;7401491;19;20141;-76
2022/12/30 11:57:33;;;;;;;1.93;0.70;;;10.80;99.90;;;;;;7391129;19;20234;-78
2022/12/30 12:00:23;;;;;;;0.67;0.60;;;10.70;99.90;;;;;;7388323;19;20138;-78
2022/12/30 12:03:00;;;;;;;0.70;0.70;;;10.80;99.90;;;;;;7387437;19;20145;-77
2022/12/30 12:05:29;;;;;;;0.60;0.60;;;10.80;99.90;;;;;;7384339;19;20181;-77
2022/12/30 12:08:19;;;;;;;1.13;0.70;;;10.70;99.90;;;;;;7387108;19;20637;-78
2022/12/30 12:10:55;;;;;;;1.43;0.60;;;10.60;99.90;;;;;;7385945;19;20138;-77
2022/12/30 12:13:46;;;;;;;0.90;0.80;;;10.70;99.90;;;;;;7388293;19;20153;-79
2022/12/30 12:16:18;;;;;;;2.37;1.37;;;10.70;99.90;;;;;;7388415;19;20139;-78
2022/12/30 12:18:54;;;;;;;1.13;1.03;;;10.80;99.90;;;;;;7388345;19;20527;-77
2022/12/30 12:21:27;;;;;;;1.30;0.80;;;10.80;99.90;;;;;;7388726;19;20135;-77
2022/12/30 12:24:03;;;;;;;1.07;0.80;;;10.80;99.90;;;;;;7385231;19;20154;-77
2022/12/30 12:26:35;;;;;;;2.93;1.20;;;11.00;99.90;;;;;;7386780;19;20154;-78
2022/12/30 12:29:01;;;;;;;1.77;1.40;;;11.10;99.90;;;;;;7389224;19;20131;-79
2022/12/30 12:31:42;;;;;;;1.87;1.00;;;11.00;99.90;;;;;;7386540;19;20158;-78
2022/12/30 12:34:16;;;;;;;2.43;0.83;;;11.00;99.90;;;;;;7392648;19;20246;-80
2022/12/30 12:37:17;;;;;;;0.87;0.70;;;10.90;99.90;;;;;;7393076;19;20666;-79
2022/12/30 12:40:12;;;;;;;1.00;0.90;;;10.90;99.90;;;;;;7393118;19;20165;-78
2022/12/30 12:42:50;;;;;;;1.10;0.85;;;10.90;99.90;;;;;;7393228;19;20202;-78
2022/12/30 12:45:47;;;;;;;1.50;1.00;;;11.00;99.90;;;;;;7394869;19;20134;-78
2022/12/30 12:48:12;;;;;;;1.40;0.87;;;11.10;99.90;;;;;;7394274;19;20134;-78
2022/12/30 12:51:17;;;;;;;2.73;1.00;;;11.00;99.90;;;;;;7391669;19;20134;-78
2022/12/30 12:54:25;;;;;;;2.10;0.93;;;11.20;99.90;;;;;;7389427;19;20154;-78
2022/12/30 12:57:14;;;;;;;1.20;1.10;;;11.40;99.90;;;;;;7388574;19;20297;-78
2022/12/30 13:00:07;;;;;;;0.93;0.70;;;11.10;99.90;;;;;;7391385;19;20221;-80
2022/12/30 13:02:59;;;;;;;1.10;0.70;;;11.30;99.90;;;;;;7393341;19;20131;-78
2022/12/30 13:05:58;;;;;;;0.70;0.70;;;11.40;99.90;;;;;;7392905;19;20147;-78
2022/12/30 13:09:06;;;;;;;1.03;0.60;;;11.30;99.90;;;;;;7391410;19;20139;-78
2022/12/30 13:11:50;;;;;;;1.23;0.70;;;11.10;99.90;;;;;;7391045;19;20162;-78
2022/12/30 13:14:44;;;;;;;2.43;0.70;;;10.90;99.90;;;;;;7391436;19;20218;-78
2022/12/30 13:17:31;;;;;;;0.83;0.77;;;10.90;99.90;;;;;;7388888;19;20142;-79
2022/12/30 13:20:04;;;;;;;0.83;0.73;;;11.00;99.90;;;;;;7393885;19;20175;-79
2022/12/30 13:22:36;;;;;;;1.65;0.65;;;11.00;99.90;;;;;;7392243;19;20170;-78
2022/12/30 13:25:19;;;;;;;0.87;0.80;;;11.10;99.90;;;;;;7392135;19;20143;-77
2022/12/30 13:27:49;;;;;;;1.53;0.97;;;11.00;99.90;;;;;;7393694;19;20146;-78
2022/12/30 13:30:17;;;;;;;2.00;1.17;;;10.80;99.90;;;;;;7392568;19;20143;-78
2022/12/30 13:33:14;;;;;;;1.97;1.03;;;11.00;99.90;;;;;;7392213;19;20135;-78
2022/12/30 13:35:59;;;;;;;2.07;1.00;;;11.00;99.90;;;;;;7392609;19;20150;-78
2022/12/30 13:38:37;;;;;;;0.80;0.70;;;11.00;99.90;;;;;;7393270;19;20221;-79
2022/12/30 13:41:21;;;;;;;1.53;0.90;;;11.10;99.90;;;;;;7391325;19;20592;-78
2022/12/30 13:43:54;;;;;;;1.40;0.80;;;11.10;99.90;;;;;;7392405;19;20142;-78
2022/12/30 13:46:31;;;;;;;2.80;0.90;;;11.00;99.90;;;;;;7391702;19;20138;-77
2022/12/30 13:49:01;;;;;;;1.63;0.87;;;11.00;99.90;;;;;;7391155;19;20559;-77
2022/12/30 13:51:29;;;;;;;1.77;0.70;;;11.00;99.90;;;;;;7388943;19;20149;-80
2022/12/30 13:54:05;;;;;;;1.33;1.00;;;11.00;99.90;;;;;;7390333;19;20158;-78
2022/12/30 13:56:40;;;;;;;1.30;1.10;;;11.00;99.90;;;;;;7390524;19;20145;-78
2022/12/30 13:59:28;;;;;;;1.17;0.80;;;11.00;99.90;;;;;;7393267;19;20141;-79
2022/12/30 14:02:19;;;;;;;1.47;0.70;;;11.10;99.90;;;;;;7392467;19;20150;-79
2022/12/30 14:04:53;;;;;;;1.30;0.90;;;11.10;99.90;;;;;;7389126;19;20595;-79
2022/12/30 14:07:37;;;;;;;4.43;1.30;;;11.00;99.90;;;;;;7392574;19;20473;-79
2022/12/30 14:10:18;;;;;;;1.83;1.07;;;11.00;99.90;;;;;;7391999;19;20143;-77